Weather at lake Modewarre Private airstrip no.2

Public forecast

Using degrees Celsius for public forecast. Weather courtesy of forecast.io.

Closest aviation weather report (METAR) to lake Modewarre Private airstrip no.2

Closest report is Avalon Airport, 21.9 nm (40.6 km) NE.

2024/06/13 10:00 (retrieved 36 minutes ago)

YMAV 131000Z AUTO 26004KT 9999 // OVC042 OVC048 10/08 Q1022

Closest aviation forecast (TAF) to lake Modewarre Private airstrip no.2

Closest forecast is Avalon Airport, 21.9 nm (40.6 km) NE.

2024/06/13 05:12 Ammendment (retrieved 5 hours ago)

TAF AMD YMAV 130509Z 1305/1406 27010KT 9999 -SHRA SCT015 BKN020 FM131500 30005KT 9999 NSW SCT010 BKN020 BECMG 1323/1401 08005KT 9999 SCT020 INTER 1305/1315 6000 SHRA BKN013